SBI6443 UIII-UIBB
Flight info
| Callsign | SBI6443 |
|---|---|
| Flight time | 0h 53m |
| Altitude | 35000 |
| Route | N0450F350 BOGRA A815 GIMED |
| Aircraft | A320/M-VGDW/C |
Departure
| Time | 2026-05-04 19:49 |
|---|---|
| Airport | Irkutsk International Airport (UIII) |
Arrival
| Time | 2026-05-04 20:42 |
|---|---|
| Airport | Bratsk Airport (UIBB) |
| Time | Latitude | Longitude | Altitude | Speed | Heading |
|---|---|---|---|---|---|
| 2026-05-04 19:12 | 52.27217 | 104.36320 | 1629 ft | 0 kts | 200° |
| 2026-05-04 19:40 | 52.27200 | 104.36311 | 1604 ft | 4 kts | 193° |
| 2026-05-04 19:41 | 52.27180 | 104.36320 | 1634 ft | 2 kts | 147° |
| 2026-05-04 19:41 | 52.27169 | 104.36344 | 1633 ft | 6 kts | 123° |
| 2026-05-04 19:41 | 52.27151 | 104.36418 | 1629 ft | 7 kts | 109° |
| 2026-05-04 19:41 | 52.27137 | 104.36483 | 1629 ft | 6 kts | 109° |
| 2026-05-04 19:42 | 52.27126 | 104.36536 | 1631 ft | 4 kts | 109° |
| 2026-05-04 19:42 | 52.27117 | 104.36577 | 1629 ft | 3 kts | 109° |
| 2026-05-04 19:42 | 52.27102 | 104.36643 | 1629 ft | 12 kts | 110° |
| 2026-05-04 19:42 | 52.27075 | 104.36764 | 1629 ft | 11 kts | 110° |
| 2026-05-04 19:43 | 52.27051 | 104.36869 | 1632 ft | 9 kts | 110° |
| 2026-05-04 19:43 | 52.27030 | 104.36959 | 1629 ft | 8 kts | 110° |
| 2026-05-04 19:43 | 52.27011 | 104.37044 | 1631 ft | 12 kts | 110° |
| 2026-05-04 19:43 | 52.26993 | 104.37190 | 1629 ft | 13 kts | 77° |
| 2026-05-04 19:44 | 52.26992 | 104.37317 | 1631 ft | 10 kts | 109° |
| 2026-05-04 19:44 | 52.26967 | 104.37417 | 1633 ft | 8 kts | 113° |
| 2026-05-04 19:44 | 52.26948 | 104.37488 | 1631 ft | 6 kts | 113° |
| 2026-05-04 19:44 | 52.26910 | 104.37628 | 1633 ft | 23 kts | 114° |
| 2026-05-04 19:45 | 52.26822 | 104.37957 | 1637 ft | 39 kts | 113° |
| 2026-05-04 19:45 | 52.26697 | 104.38420 | 1643 ft | 48 kts | 114° |
| 2026-05-04 19:45 | 52.26569 | 104.38909 | 1650 ft | 45 kts | 113° |
| 2026-05-04 19:45 | 52.26448 | 104.39365 | 1668 ft | 42 kts | 114° |
| 2026-05-04 19:46 | 52.26333 | 104.39792 | 1667 ft | 40 kts | 113° |
| 2026-05-04 19:46 | 52.26226 | 104.40195 | 1670 ft | 38 kts | 114° |
| 2026-05-04 19:46 | 52.26122 | 104.40585 | 1672 ft | 37 kts | 113° |
| 2026-05-04 19:46 | 52.26025 | 104.40948 | 1679 ft | 27 kts | 113° |
| 2026-05-04 19:47 | 52.26026 | 104.41185 | 1680 ft | 13 kts | 34° |
| 2026-05-04 19:47 | 52.26109 | 104.41241 | 1683 ft | 13 kts | 21° |
| 2026-05-04 19:47 | 52.26194 | 104.41290 | 1680 ft | 13 kts | 8° |
| 2026-05-04 19:47 | 52.26254 | 104.41181 | 1684 ft | 15 kts | 294° |
| 2026-05-04 19:48 | 52.26258 | 104.41169 | 1679 ft | 0 kts | 294° |
| 2026-05-04 19:48 | 52.26299 | 104.41014 | 1680 ft | 50 kts | 293° |
| 2026-05-04 19:48 | 52.26537 | 104.40121 | 1664 ft | 118 kts | 292° |
| 2026-05-04 19:48 | 52.26938 | 104.38618 | 1643 ft | 168 kts | 293° |
| 2026-05-04 19:49 | 52.27462 | 104.36695 | 1844 ft | 193 kts | 294° |
| 2026-05-04 19:49 | 52.28025 | 104.34670 | 2580 ft | 200 kts | 296° |
| 2026-05-04 19:49 | 52.28686 | 104.32625 | 3420 ft | 207 kts | 301° |
| 2026-05-04 19:49 | 52.29380 | 104.30507 | 4243 ft | 215 kts | 301° |
| 2026-05-04 19:50 | 52.30174 | 104.28421 | 5009 ft | 224 kts | 316° |
| 2026-05-04 19:50 | 52.31545 | 104.27043 | 5588 ft | 239 kts | 338° |
| 2026-05-04 19:50 | 52.33152 | 104.26171 | 6413 ft | 248 kts | 343° |
| 2026-05-04 19:50 | 52.34835 | 104.25414 | 7248 ft | 254 kts | 343° |
| 2026-05-04 19:51 | 52.36555 | 104.24630 | 8130 ft | 259 kts | 342° |
| 2026-05-04 19:51 | 52.38298 | 104.23776 | 9032 ft | 264 kts | 340° |
| 2026-05-04 19:51 | 52.40056 | 104.22851 | 9931 ft | 267 kts | 339° |
| 2026-05-04 19:51 | 52.41240 | 104.22202 | 10319 ft | 278 kts | 339° |
| 2026-05-04 19:52 | 52.49595 | 104.17360 | 13160 ft | 313 kts | 337° |
| 2026-05-04 19:53 | 52.51628 | 104.16164 | 13968 ft | 316 kts | 337° |
| 2026-05-04 19:53 | 52.53703 | 104.14942 | 14687 ft | 318 kts | 336° |
| 2026-05-04 19:53 | 52.55795 | 104.13711 | 15389 ft | 321 kts | 336° |
| 2026-05-04 19:53 | 52.57909 | 104.12467 | 16080 ft | 325 kts | 336° |
| 2026-05-04 19:54 | 52.60049 | 104.11206 | 16790 ft | 328 kts | 335° |
| 2026-05-04 19:54 | 52.62206 | 104.09933 | 17486 ft | 331 kts | 335° |
| 2026-05-04 19:54 | 52.64390 | 104.08640 | 18156 ft | 335 kts | 335° |
| 2026-05-04 19:54 | 52.66598 | 104.07336 | 18751 ft | 339 kts | 335° |
| 2026-05-04 19:55 | 52.68824 | 104.06020 | 19347 ft | 341 kts | 335° |
| 2026-05-04 19:55 | 52.71066 | 104.04692 | 19934 ft | 344 kts | 335° |
| 2026-05-04 19:55 | 52.73333 | 104.03349 | 20531 ft | 347 kts | 335° |
| 2026-05-04 19:55 | 52.75605 | 104.01999 | 21114 ft | 349 kts | 335° |
| 2026-05-04 19:56 | 52.77895 | 104.00642 | 21693 ft | 351 kts | 335° |
| 2026-05-04 19:56 | 52.80206 | 103.99270 | 22264 ft | 354 kts | 335° |
| 2026-05-04 19:56 | 52.82530 | 103.97886 | 22816 ft | 356 kts | 335° |
| 2026-05-04 19:56 | 52.84865 | 103.96491 | 23387 ft | 359 kts | 334° |
| 2026-05-04 19:57 | 52.87215 | 103.95085 | 23885 ft | 361 kts | 335° |
| 2026-05-04 19:57 | 52.89588 | 103.93666 | 24318 ft | 364 kts | 335° |
| 2026-05-04 19:57 | 52.91977 | 103.92239 | 24755 ft | 366 kts | 335° |
| 2026-05-04 19:57 | 52.94380 | 103.90799 | 25179 ft | 369 kts | 335° |
| 2026-05-04 19:58 | 52.96799 | 103.89346 | 25591 ft | 371 kts | 335° |
| 2026-05-04 19:58 | 52.99239 | 103.87876 | 26006 ft | 374 kts | 335° |
| 2026-05-04 19:58 | 53.01693 | 103.86394 | 26407 ft | 377 kts | 335° |
| 2026-05-04 19:58 | 53.04172 | 103.84897 | 26821 ft | 380 kts | 335° |
| 2026-05-04 19:59 | 53.06635 | 103.83411 | 27211 ft | 383 kts | 335° |
| 2026-05-04 19:59 | 53.09144 | 103.81895 | 27605 ft | 385 kts | 335° |
| 2026-05-04 19:59 | 53.11677 | 103.80369 | 27997 ft | 388 kts | 335° |
| 2026-05-04 19:59 | 53.14224 | 103.78835 | 28380 ft | 391 kts | 335° |
| 2026-05-04 20:00 | 53.16721 | 103.77052 | 28745 ft | 391 kts | 331° |
| 2026-05-04 20:00 | 53.19190 | 103.75124 | 29114 ft | 394 kts | 331° |
| 2026-05-04 20:00 | 53.21712 | 103.73150 | 29495 ft | 396 kts | 331° |
| 2026-05-04 20:00 | 53.24184 | 103.71210 | 29850 ft | 399 kts | 331° |
| 2026-05-04 20:01 | 53.26700 | 103.69228 | 30194 ft | 402 kts | 331° |
| 2026-05-04 20:01 | 53.29240 | 103.67229 | 30474 ft | 404 kts | 331° |
| 2026-05-04 20:01 | 53.31792 | 103.65227 | 30764 ft | 407 kts | 331° |
| 2026-05-04 20:01 | 53.34358 | 103.63221 | 31037 ft | 409 kts | 331° |
| 2026-05-04 20:02 | 53.36945 | 103.61196 | 31299 ft | 411 kts | 331° |
| 2026-05-04 20:02 | 53.39538 | 103.59157 | 31551 ft | 413 kts | 331° |
| 2026-05-04 20:02 | 53.42139 | 103.57103 | 31889 ft | 413 kts | 331° |
| 2026-05-04 20:02 | 53.44742 | 103.55045 | 32248 ft | 413 kts | 331° |
| 2026-05-04 20:03 | 53.47343 | 103.52983 | 32588 ft | 414 kts | 331° |
| 2026-05-04 20:03 | 53.49953 | 103.50910 | 32925 ft | 415 kts | 331° |
| 2026-05-04 20:03 | 53.52560 | 103.48843 | 33260 ft | 416 kts | 331° |
| 2026-05-04 20:03 | 53.55176 | 103.46775 | 33597 ft | 416 kts | 332° |
| 2026-05-04 20:04 | 53.57799 | 103.44696 | 33933 ft | 417 kts | 332° |
| 2026-05-04 20:04 | 53.60428 | 103.42611 | 34053 ft | 415 kts | 332° |
| 2026-05-04 20:04 | 53.63013 | 103.40566 | 34073 ft | 406 kts | 332° |
| 2026-05-04 20:05 | 53.68079 | 103.36552 | 34075 ft | 401 kts | 332° |
| 2026-05-04 20:05 | 53.73116 | 103.32531 | 34081 ft | 400 kts | 332° |
| 2026-05-04 20:06 | 53.78144 | 103.28509 | 34078 ft | 400 kts | 332° |
| 2026-05-04 20:06 | 53.83171 | 103.24483 | 34081 ft | 399 kts | 332° |
| 2026-05-04 20:07 | 53.88193 | 103.20450 | 34082 ft | 399 kts | 332° |
| 2026-05-04 20:07 | 53.93209 | 103.16390 | 34084 ft | 399 kts | 331° |
| 2026-05-04 20:08 | 53.98188 | 103.12357 | 34088 ft | 399 kts | 332° |
| 2026-05-04 20:08 | 54.03199 | 103.08306 | 34084 ft | 399 kts | 332° |
| 2026-05-04 20:09 | 54.08239 | 103.04214 | 34087 ft | 399 kts | 332° |
| 2026-05-04 20:09 | 54.13209 | 103.00154 | 34084 ft | 399 kts | 332° |
| 2026-05-04 20:10 | 54.18213 | 102.96069 | 34081 ft | 398 kts | 332° |
| 2026-05-04 20:10 | 54.23212 | 102.91980 | 34076 ft | 399 kts | 332° |
| 2026-05-04 20:11 | 54.28209 | 102.87867 | 34080 ft | 399 kts | 332° |
| 2026-05-04 20:11 | 54.33213 | 102.83731 | 34090 ft | 400 kts | 332° |
| 2026-05-04 20:12 | 54.38221 | 102.79576 | 34087 ft | 400 kts | 332° |
| 2026-05-04 20:12 | 54.43233 | 102.75423 | 34086 ft | 400 kts | 332° |
| 2026-05-04 20:13 | 54.48244 | 102.71261 | 34090 ft | 400 kts | 332° |
| 2026-05-04 20:13 | 54.53226 | 102.67112 | 34086 ft | 400 kts | 332° |
| 2026-05-04 20:14 | 54.58242 | 102.62930 | 34085 ft | 401 kts | 332° |
| 2026-05-04 20:14 | 54.63260 | 102.58736 | 34083 ft | 401 kts | 332° |
| 2026-05-04 20:15 | 54.68275 | 102.54520 | 34090 ft | 401 kts | 332° |
| 2026-05-04 20:15 | 54.73287 | 102.50294 | 34090 ft | 401 kts | 332° |
| 2026-05-04 20:16 | 54.78302 | 102.46054 | 34089 ft | 401 kts | 332° |
| 2026-05-04 20:16 | 54.83320 | 102.41801 | 34091 ft | 401 kts | 332° |
| 2026-05-04 20:17 | 54.88363 | 102.37524 | 34104 ft | 410 kts | 332° |
| 2026-05-04 20:17 | 54.90950 | 102.35318 | 33956 ft | 416 kts | 332° |
| 2026-05-04 20:17 | 54.93548 | 102.33098 | 33255 ft | 416 kts | 332° |
| 2026-05-04 20:17 | 54.96139 | 102.30885 | 32649 ft | 412 kts | 333° |
| 2026-05-04 20:18 | 54.98701 | 102.28698 | 32139 ft | 408 kts | 333° |
| 2026-05-04 20:18 | 55.00377 | 102.27269 | 31765 ft | 403 kts | 333° |
| 2026-05-04 20:18 | 55.03715 | 102.24418 | 30930 ft | 395 kts | 333° |
| 2026-05-04 20:18 | 55.06163 | 102.22320 | 30349 ft | 389 kts | 333° |
| 2026-05-04 20:19 | 55.07764 | 102.20942 | 29921 ft | 385 kts | 333° |
| 2026-05-04 20:19 | 55.10930 | 102.18220 | 29232 ft | 372 kts | 333° |
| 2026-05-04 20:19 | 55.12453 | 102.16914 | 28967 ft | 365 kts | 333° |
| 2026-05-04 20:19 | 55.15402 | 102.14381 | 28461 ft | 350 kts | 333° |
| 2026-05-04 20:20 | 55.16859 | 102.13122 | 28198 ft | 343 kts | 333° |
| 2026-05-04 20:20 | 55.18963 | 102.11298 | 27831 ft | 333 kts | 333° |
| 2026-05-04 20:20 | 55.21661 | 102.08956 | 27338 ft | 321 kts | 333° |
| 2026-05-04 20:20 | 55.23000 | 102.07795 | 27096 ft | 315 kts | 334° |
| 2026-05-04 20:21 | 55.24938 | 102.06113 | 26732 ft | 307 kts | 334° |
| 2026-05-04 20:21 | 55.26822 | 102.04473 | 26372 ft | 306 kts | 334° |
| 2026-05-04 20:21 | 55.30613 | 102.01174 | 25642 ft | 302 kts | 334° |
| 2026-05-04 20:22 | 55.32492 | 101.99540 | 25271 ft | 300 kts | 334° |
| 2026-05-04 20:22 | 55.34351 | 101.97916 | 24890 ft | 298 kts | 334° |
| 2026-05-04 20:22 | 55.36201 | 101.96295 | 24514 ft | 296 kts | 334° |
| 2026-05-04 20:22 | 55.38038 | 101.94685 | 24142 ft | 294 kts | 334° |
| 2026-05-04 20:23 | 55.39865 | 101.93083 | 23761 ft | 292 kts | 335° |
| 2026-05-04 20:23 | 55.41691 | 101.91542 | 23345 ft | 290 kts | 339° |
| 2026-05-04 20:23 | 55.43610 | 101.90524 | 22955 ft | 288 kts | 349° |
| 2026-05-04 20:23 | 55.45598 | 101.90153 | 22571 ft | 287 kts | 359° |
| 2026-05-04 20:24 | 55.47591 | 101.90267 | 22187 ft | 287 kts | 1° |
| 2026-05-04 20:24 | 55.49582 | 101.90398 | 21808 ft | 286 kts | 0° |
| 2026-05-04 20:24 | 55.51571 | 101.90525 | 21433 ft | 286 kts | 0° |
| 2026-05-04 20:24 | 55.53552 | 101.90648 | 21062 ft | 285 kts | 0° |
| 2026-05-04 20:25 | 55.55534 | 101.90769 | 20691 ft | 285 kts | 0° |
| 2026-05-04 20:25 | 55.57512 | 101.90891 | 20320 ft | 284 kts | 0° |
| 2026-05-04 20:25 | 55.59490 | 101.91017 | 19948 ft | 284 kts | 0° |
| 2026-05-04 20:25 | 55.61465 | 101.91143 | 19584 ft | 284 kts | 0° |
| 2026-05-04 20:26 | 55.63441 | 101.91266 | 19219 ft | 284 kts | 0° |
| 2026-05-04 20:26 | 55.65422 | 101.91388 | 18852 ft | 285 kts | 0° |
| 2026-05-04 20:26 | 55.67407 | 101.91511 | 18492 ft | 286 kts | 0° |
| 2026-05-04 20:26 | 55.69397 | 101.91636 | 18082 ft | 286 kts | 0° |
| 2026-05-04 20:27 | 55.71387 | 101.91761 | 17711 ft | 286 kts | 0° |
| 2026-05-04 20:27 | 55.73370 | 101.91882 | 17347 ft | 285 kts | 0° |
| 2026-05-04 20:27 | 55.75348 | 101.92004 | 16990 ft | 284 kts | 0° |
| 2026-05-04 20:27 | 55.77300 | 101.92132 | 16643 ft | 279 kts | 0° |
| 2026-05-04 20:28 | 55.79310 | 101.92258 | 16060 ft | 295 kts | 0° |
| 2026-05-04 20:28 | 55.81370 | 101.92387 | 15263 ft | 298 kts | 0° |
| 2026-05-04 20:28 | 55.83442 | 101.92517 | 14597 ft | 296 kts | 0° |
| 2026-05-04 20:28 | 55.85489 | 101.92646 | 14351 ft | 293 kts | 0° |
| 2026-05-04 20:29 | 55.87521 | 101.92777 | 14085 ft | 292 kts | 1° |
| 2026-05-04 20:29 | 55.89522 | 101.92910 | 13836 ft | 281 kts | 0° |
| 2026-05-04 20:29 | 55.91431 | 101.93038 | 13497 ft | 269 kts | 0° |
| 2026-05-04 20:29 | 55.93275 | 101.93157 | 13096 ft | 261 kts | 0° |
| 2026-05-04 20:30 | 55.95071 | 101.93270 | 12683 ft | 254 kts | 0° |
| 2026-05-04 20:30 | 55.96814 | 101.93382 | 12292 ft | 247 kts | 0° |
| 2026-05-04 20:30 | 55.98512 | 101.93491 | 11901 ft | 241 kts | 0° |
| 2026-05-04 20:30 | 56.00147 | 101.93598 | 11523 ft | 236 kts | 0° |
| 2026-05-04 20:31 | 56.01770 | 101.93705 | 11150 ft | 231 kts | 0° |
| 2026-05-04 20:31 | 56.03356 | 101.93809 | 10789 ft | 226 kts | 0° |
| 2026-05-04 20:31 | 56.04921 | 101.93911 | 10326 ft | 225 kts | 0° |
| 2026-05-04 20:31 | 56.06530 | 101.94012 | 9533 ft | 237 kts | 0° |
| 2026-05-04 20:32 | 56.08212 | 101.94118 | 8721 ft | 246 kts | 0° |
| 2026-05-04 20:32 | 56.09939 | 101.94229 | 7939 ft | 251 kts | 0° |
| 2026-05-04 20:32 | 56.11674 | 101.94338 | 7511 ft | 242 kts | 0° |
| 2026-05-04 20:32 | 56.13287 | 101.94445 | 7373 ft | 224 kts | 0° |
| 2026-05-04 20:33 | 56.14789 | 101.94547 | 7238 ft | 208 kts | 1° |
| 2026-05-04 20:33 | 56.16196 | 101.94645 | 7101 ft | 199 kts | 0° |
| 2026-05-04 20:33 | 56.17548 | 101.94734 | 7001 ft | 186 kts | 0° |
| 2026-05-04 20:33 | 56.18786 | 101.94846 | 6862 ft | 171 kts | 4° |
| 2026-05-04 20:34 | 56.19900 | 101.95254 | 6725 ft | 162 kts | 14° |
| 2026-05-04 20:34 | 56.20936 | 101.95990 | 6603 ft | 159 kts | 21° |
| 2026-05-04 20:34 | 56.21921 | 101.96816 | 6476 ft | 154 kts | 21° |
| 2026-05-04 20:34 | 56.22879 | 101.97617 | 6305 ft | 151 kts | 21° |
| 2026-05-04 20:35 | 56.23826 | 101.98408 | 6121 ft | 149 kts | 21° |
| 2026-05-04 20:35 | 56.24766 | 101.99192 | 5932 ft | 149 kts | 21° |
| 2026-05-04 20:35 | 56.25704 | 101.99975 | 5747 ft | 148 kts | 21° |
| 2026-05-04 20:35 | 56.26635 | 102.00753 | 5548 ft | 147 kts | 21° |
| 2026-05-04 20:36 | 56.27561 | 102.01528 | 5365 ft | 146 kts | 21° |
| 2026-05-04 20:36 | 56.28480 | 102.02297 | 5174 ft | 145 kts | 21° |
| 2026-05-04 20:36 | 56.29438 | 102.02694 | 5008 ft | 140 kts | 352° |
| 2026-05-04 20:36 | 56.30334 | 102.02109 | 4840 ft | 138 kts | 323° |
| 2026-05-04 20:37 | 56.30912 | 102.00741 | 4679 ft | 141 kts | 292° |
| 2026-05-04 20:37 | 56.30992 | 101.98969 | 4510 ft | 146 kts | 268° |
| 2026-05-04 20:37 | 56.30939 | 101.97166 | 4368 ft | 143 kts | 276° |
| 2026-05-04 20:37 | 56.31007 | 101.95391 | 4189 ft | 140 kts | 283° |
| 2026-05-04 20:38 | 56.31184 | 101.93667 | 4018 ft | 138 kts | 289° |
| 2026-05-04 20:38 | 56.31461 | 101.92027 | 3869 ft | 137 kts | 294° |
| 2026-05-04 20:38 | 56.31800 | 101.90442 | 3720 ft | 133 kts | 296° |
| 2026-05-04 20:38 | 56.32164 | 101.88900 | 3672 ft | 134 kts | 298° |
| 2026-05-04 20:39 | 56.32545 | 101.87365 | 3529 ft | 134 kts | 299° |
| 2026-05-04 20:39 | 56.32928 | 101.85855 | 3381 ft | 131 kts | 299° |
| 2026-05-04 20:39 | 56.33311 | 101.84364 | 3209 ft | 131 kts | 300° |
| 2026-05-04 20:39 | 56.33692 | 101.82884 | 3016 ft | 130 kts | 299° |
| 2026-05-04 20:40 | 56.34075 | 101.81404 | 2837 ft | 130 kts | 298° |
| 2026-05-04 20:40 | 56.34456 | 101.79931 | 2646 ft | 130 kts | 298° |
| 2026-05-04 20:40 | 56.34840 | 101.78447 | 2443 ft | 131 kts | 296° |
| 2026-05-04 20:40 | 56.35224 | 101.76961 | 2238 ft | 131 kts | 296° |
| 2026-05-04 20:41 | 56.35609 | 101.75487 | 2044 ft | 130 kts | 295° |
| 2026-05-04 20:41 | 56.35992 | 101.74015 | 1897 ft | 130 kts | 293° |
| 2026-05-04 20:41 | 56.36359 | 101.72530 | 1707 ft | 129 kts | 294° |
| 2026-05-04 20:41 | 56.36740 | 101.71088 | 1616 ft | 118 kts | 295° |
| 2026-05-04 20:42 | 56.37015 | 101.70013 | 1618 ft | 76 kts | 295° |
| 2026-05-04 20:42 | 56.37207 | 101.69327 | 1609 ft | 42 kts | 292° |
| 2026-05-04 20:42 | 56.37131 | 101.69049 | 1613 ft | 27 kts | 202° |
| 2026-05-04 20:42 | 56.36986 | 101.69152 | 1618 ft | 23 kts | 123° |
| 2026-05-04 20:43 | 56.36919 | 101.69422 | 1615 ft | 24 kts | 110° |
| 2026-05-04 20:43 | 56.36841 | 101.69703 | 1613 ft | 26 kts | 117° |
| 2026-05-04 20:43 | 56.36762 | 101.70007 | 1617 ft | 28 kts | 115° |
| 2026-05-04 20:43 | 56.36682 | 101.70310 | 1611 ft | 22 kts | 115° |
| 2026-05-04 20:44 | 56.36635 | 101.70491 | 1616 ft | 15 kts | 115° |
| 2026-05-04 20:44 | 56.36615 | 101.70566 | 1612 ft | 0 kts | 115° |
| 2026-05-04 20:44 | 56.36615 | 101.70568 | 1617 ft | 2 kts | 115° |
| 2026-05-04 20:44 | 56.36590 | 101.70598 | 1615 ft | 3 kts | 172° |
| 2026-05-04 20:45 | 56.36573 | 101.70590 | 1614 ft | 2 kts | 199° |
| 2026-05-04 20:45 | 56.36563 | 101.70583 | 1613 ft | 1 kts | 199° |
| 2026-05-04 20:45 | 56.36558 | 101.70580 | 1613 ft | 0 kts | 199° |
| 2026-05-04 20:45 | 56.36548 | 101.70571 | 1613 ft | 3 kts | 208° |
| 2026-05-04 20:46 | 56.36538 | 101.70555 | 1613 ft | 1 kts | 227° |
| 2026-05-04 20:46 | 56.36533 | 101.70536 | 1618 ft | 2 kts | 250° |
| 2026-05-04 20:46 | 56.36533 | 101.70518 | 1616 ft | 1 kts | 272° |
| 2026-05-04 20:46 | 56.36535 | 101.70502 | 1612 ft | 3 kts | 282° |
| 2026-05-04 20:47 | 56.36542 | 101.70470 | 1614 ft | 2 kts | 292° |
| 2026-05-04 20:47 | 56.36542 | 101.70468 | 1614 ft | 0 kts | 292° |
| 2026-05-04 21:04 | 56.36542 | 101.70469 | 1611 ft | 0 kts | 292° |